Hauptseite
METAR-TAF:

METAR-TAF

Flughäfen :

Flughafen Augsburg

Augsburg, Deutschland

Breite: 48-26N, Länge: 010-56E, Höhe: 461 m

Beobachtung

Neuester Wetterbericht von vor 39 Minuten, um 09:50 UTC
Wind 11 kt aus Ost, variierte zwischen Nordost und Ost/Südost
Temperatur 3°C
Luftfeuchtigkeit 87%
Luftdruck 1029 hPa
Sichtweite: 7000 m
Geschlossene Wolkendecke in der Höhe von 900 ft

METAR: EDMA 160950Z 10011KT 050V120 7000 OVC009 03/01 Q1029

Zeit: 11:29 (10:29 UTC)

Prognose

Neuester Wetterbericht von vor 2 Stunden und 29 Minuten, um 08:00 UTC
Gültige Prognose vom 16 um 09 UTC bis 16 um 18 UTC
Wind 5 kt aus Ost/Nordost
Sichtweite: 6000 m
Geschlossene Wolkendecke in der Höhe von 800 ft
Übergehend zu
vom 16 um 09 UTC bis 16 um 11 UTC
Aufgelockert bewölkt in der Höhe von 1000 ft

TAF: EDMA 160800Z 1609/1618 07005KT 6000 OVC008 BECMG 1609/1611 SCT010

Wetterbeobachtungen und Prognosen von mehr als 4000 Flughäfen (METAR und TAF Bericht).

Die verfügbaren Stationen werden durch gelbe und rote Markierungen auf der Karte dargestellt.

Führen Sie die Maus auf sie, um den Namen der Station zu sehen.

Darauf klicken, um die Beobachtung von Wetterbeobachtungen und Prognosen zu sehen.

Um die Karte zu ändern : klicken Sie auf den grünen Tasten mit einem schwarzen Kreuz Zum Vergrößern, auf den grünen Button mit einem Gedankenstrich zu verkleinern, oder auf die grünen Pfeile für benachbarte Karten.


METAR-TAF: